sensor_id;sensor_type;location;lat;lon;timestamp;temperature;humidity
21646;DHT22;10984;45.712;4.800;2023-04-24T00:00:42;10.80;99.90
21646;DHT22;10984;45.712;4.800;2023-04-24T00:10:37;10.70;99.90
21646;DHT22;10984;45.712;4.800;2023-04-24T01:56:10;10.20;99.90
21646;DHT22;10984;45.712;4.800;2023-04-24T01:59:16;10.20;99.90
21646;DHT22;10984;45.712;4.800;2023-04-24T02:09:13;10.40;99.90
21646;DHT22;10984;45.712;4.800;2023-04-24T03:38:31;10.50;99.90
21646;DHT22;10984;45.712;4.800;2023-04-24T04:08:16;10.40;99.90
21646;DHT22;10984;45.712;4.800;2023-04-24T04:31:29;10.30;99.90
21646;DHT22;10984;45.712;4.800;2023-04-24T04:48:53;10.30;99.90
21646;DHT22;10984;45.712;4.800;2023-04-24T05:08:47;10.00;99.90
21646;DHT22;10984;45.712;4.800;2023-04-24T05:11:14;9.90;99.90
21646;DHT22;10984;45.712;4.800;2023-04-24T05:13:40;9.80;99.90
21646;DHT22;10984;45.712;4.800;2023-04-24T05:16:06;9.70;99.90
21646;DHT22;10984;45.712;4.800;2023-04-24T05:18:31;9.80;99.90
21646;DHT22;10984;45.712;4.800;2023-04-24T05:20:57;9.80;99.90
21646;DHT22;10984;45.712;4.800;2023-04-24T05:23:23;9.80;99.90
21646;DHT22;10984;45.712;4.800;2023-04-24T05:25:48;9.80;99.90
21646;DHT22;10984;45.712;4.800;2023-04-24T05:28:14;9.90;99.90
21646;DHT22;10984;45.712;4.800;2023-04-24T05:30:40;10.00;99.90
21646;DHT22;10984;45.712;4.800;2023-04-24T05:33:06;10.10;99.90
21646;DHT22;10984;45.712;4.800;2023-04-24T05:35:32;10.20;99.90
21646;DHT22;10984;45.712;4.800;2023-04-24T05:37:57;10.30;99.90
21646;DHT22;10984;45.712;4.800;2023-04-24T05:40:23;10.40;99.90
21646;DHT22;10984;45.712;4.800;2023-04-24T05:42:48;10.50;99.90
21646;DHT22;10984;45.712;4.800;2023-04-24T05:45:14;10.60;99.90
21646;DHT22;10984;45.712;4.800;2023-04-24T05:47:42;10.80;99.90
21646;DHT22;10984;45.712;4.800;2023-04-24T05:50:10;10.90;99.90
21646;DHT22;10984;45.712;4.800;2023-04-24T05:52:35;11.00;99.90
21646;DHT22;10984;45.712;4.800;2023-04-24T05:55:01;11.20;99.90
21646;DHT22;10984;45.712;4.800;2023-04-24T05:57:27;11.30;99.90
21646;DHT22;10984;45.712;4.800;2023-04-24T05:59:52;11.50;99.90
21646;DHT22;10984;45.712;4.800;2023-04-24T06:02:18;11.60;99.90
21646;DHT22;10984;45.712;4.800;2023-04-24T06:04:44;11.80;99.90
21646;DHT22;10984;45.712;4.800;2023-04-24T06:07:11;11.90;99.90
21646;DHT22;10984;45.712;4.800;2023-04-24T06:09:36;12.00;99.90
21646;DHT22;10984;45.712;4.800;2023-04-24T06:12:02;12.10;99.90
21646;DHT22;10984;45.712;4.800;2023-04-24T06:14:28;12.30;99.90
21646;DHT22;10984;45.712;4.800;2023-04-24T06:16:53;12.90;99.90
21646;DHT22;10984;45.712;4.800;2023-04-24T06:19:19;13.90;99.90
21646;DHT22;10984;45.712;4.800;2023-04-24T06:21:45;15.00;99.90
21646;DHT22;10984;45.712;4.800;2023-04-24T06:24:13;16.00;1.00
21646;DHT22;10984;45.712;4.800;2023-04-24T06:26:39;17.00;1.00
21646;DHT22;10984;45.712;4.800;2023-04-24T06:29:06;17.60;1.00
21646;DHT22;10984;45.712;4.800;2023-04-24T06:31:32;18.00;1.00
21646;DHT22;10984;45.712;4.800;2023-04-24T06:34:02;18.40;1.00
21646;DHT22;10984;45.712;4.800;2023-04-24T06:36:28;18.50;1.00
21646;DHT22;10984;45.712;4.800;2023-04-24T06:38:54;18.30;1.00
21646;DHT22;10984;45.712;4.800;2023-04-24T06:41:20;17.70;1.00
21646;DHT22;10984;45.712;4.800;2023-04-24T06:43:45;17.30;1.00
21646;DHT22;10984;45.712;4.800;2023-04-24T06:46:11;16.90;1.00
21646;DHT22;10984;45.712;4.800;2023-04-24T06:48:37;16.90;1.00
21646;DHT22;10984;45.712;4.800;2023-04-24T06:51:03;16.70;1.00
21646;DHT22;10984;45.712;4.800;2023-04-24T06:53:28;16.60;1.00
21646;DHT22;10984;45.712;4.800;2023-04-24T06:55:54;16.30;1.00
21646;DHT22;10984;45.712;4.800;2023-04-24T06:58:20;16.50;1.00
21646;DHT22;10984;45.712;4.800;2023-04-24T07:00:46;16.40;1.00
21646;DHT22;10984;45.712;4.800;2023-04-24T07:03:12;16.50;1.00
21646;DHT22;10984;45.712;4.800;2023-04-24T07:05:37;16.50;1.00
21646;DHT22;10984;45.712;4.800;2023-04-24T07:08:03;17.00;1.00
21646;DHT22;10984;45.712;4.800;2023-04-24T07:10:29;17.30;1.00
21646;DHT22;10984;45.712;4.800;2023-04-24T07:12:55;17.70;99.90
21646;DHT22;10984;45.712;4.800;2023-04-24T07:15:22;18.20;1.00
21646;DHT22;10984;45.712;4.800;2023-04-24T07:17:48;18.70;99.90
21646;DHT22;10984;45.712;4.800;2023-04-24T07:20:14;18.80;95.60
21646;DHT22;10984;45.712;4.800;2023-04-24T07:22:40;19.00;99.90
21646;DHT22;10984;45.712;4.800;2023-04-24T07:25:07;19.10;99.90
21646;DHT22;10984;45.712;4.800;2023-04-24T07:27:33;18.90;86.50
21646;DHT22;10984;45.712;4.800;2023-04-24T07:30:00;18.70;94.00
21646;DHT22;10984;45.712;4.800;2023-04-24T07:32:26;18.60;41.30
21646;DHT22;10984;45.712;4.800;2023-04-24T07:34:51;19.20;99.90
21646;DHT22;10984;45.712;4.800;2023-04-24T07:37:17;19.20;1.00
21646;DHT22;10984;45.712;4.800;2023-04-24T07:39:43;19.30;1.00
21646;DHT22;10984;45.712;4.800;2023-04-24T07:42:08;19.10;1.00
21646;DHT22;10984;45.712;4.800;2023-04-24T07:44:34;18.70;1.00
21646;DHT22;10984;45.712;4.800;2023-04-24T07:47:01;18.70;1.00
21646;DHT22;10984;45.712;4.800;2023-04-24T07:49:27;18.60;1.00
21646;DHT22;10984;45.712;4.800;2023-04-24T07:51:53;18.40;99.90
21646;DHT22;10984;45.712;4.800;2023-04-24T07:54:18;17.80;1.00
21646;DHT22;10984;45.712;4.800;2023-04-24T07:56:44;17.40;99.90
21646;DHT22;10984;45.712;4.800;2023-04-24T07:59:11;16.90;99.90
21646;DHT22;10984;45.712;4.800;2023-04-24T08:01:36;16.60;99.90
21646;DHT22;10984;45.712;4.800;2023-04-24T08:04:02;16.60;99.90
21646;DHT22;10984;45.712;4.800;2023-04-24T08:06:28;16.60;1.00
21646;DHT22;10984;45.712;4.800;2023-04-24T08:08:56;16.60;99.90
21646;DHT22;10984;45.712;4.800;2023-04-24T08:11:22;16.80;99.90
21646;DHT22;10984;45.712;4.800;2023-04-24T08:13:47;16.70;1.00
21646;DHT22;10984;45.712;4.800;2023-04-24T08:16:13;16.80;99.90
21646;DHT22;10984;45.712;4.800;2023-04-24T08:18:38;16.90;99.90
21646;DHT22;10984;45.712;4.800;2023-04-24T08:21:04;16.90;99.90
21646;DHT22;10984;45.712;4.800;2023-04-24T08:23:30;16.70;99.90
21646;DHT22;10984;45.712;4.800;2023-04-24T08:25:56;16.70;99.90
21646;DHT22;10984;45.712;4.800;2023-04-24T08:28:22;16.50;1.00
21646;DHT22;10984;45.712;4.800;2023-04-24T08:30:48;16.20;99.90
21646;DHT22;10984;45.712;4.800;2023-04-24T08:33:14;16.20;1.00
21646;DHT22;10984;45.712;4.800;2023-04-24T08:35:40;16.20;1.00
21646;DHT22;10984;45.712;4.800;2023-04-24T08:38:06;16.40;1.00
21646;DHT22;10984;45.712;4.800;2023-04-24T08:40:34;16.60;1.00
21646;DHT22;10984;45.712;4.800;2023-04-24T08:43:00;16.60;99.90
21646;DHT22;10984;45.712;4.800;2023-04-24T08:45:26;16.60;99.90
21646;DHT22;10984;45.712;4.800;2023-04-24T08:48:10;16.60;99.90
21646;DHT22;10984;45.712;4.800;2023-04-24T08:50:37;16.80;99.90
21646;DHT22;10984;45.712;4.800;2023-04-24T08:53:03;16.90;99.90
21646;DHT22;10984;45.712;4.800;2023-04-24T08:55:30;17.10;99.90
21646;DHT22;10984;45.712;4.800;2023-04-24T08:57:56;17.00;99.90
21646;DHT22;10984;45.712;4.800;2023-04-24T09:00:23;16.90;99.90
21646;DHT22;10984;45.712;4.800;2023-04-24T09:02:49;16.80;1.00
21646;DHT22;10984;45.712;4.800;2023-04-24T09:05:17;16.80;1.00
21646;DHT22;10984;45.712;4.800;2023-04-24T09:07:45;17.00;99.90
21646;DHT22;10984;45.712;4.800;2023-04-24T09:10:12;17.20;1.00
21646;DHT22;10984;45.712;4.800;2023-04-24T09:12:38;17.20;99.90
21646;DHT22;10984;45.712;4.800;2023-04-24T09:15:04;17.20;99.90
21646;DHT22;10984;45.712;4.800;2023-04-24T09:17:31;17.10;99.90
21646;DHT22;10984;45.712;4.800;2023-04-24T09:19:56;16.90;99.90
21646;DHT22;10984;45.712;4.800;2023-04-24T09:22:22;16.60;99.90
21646;DHT22;10984;45.712;4.800;2023-04-24T09:24:48;16.60;99.90
21646;DHT22;10984;45.712;4.800;2023-04-24T09:27:24;16.50;99.90
21646;DHT22;10984;45.712;4.800;2023-04-24T09:30:08;16.20;99.90
21646;DHT22;10984;45.712;4.800;2023-04-24T09:32:34;16.20;99.90
21646;DHT22;10984;45.712;4.800;2023-04-24T09:35:18;16.40;99.90
21646;DHT22;10984;45.712;4.800;2023-04-24T09:37:46;16.70;99.90
21646;DHT22;10984;45.712;4.800;2023-04-24T09:40:30;16.90;99.90
21646;DHT22;10984;45.712;4.800;2023-04-24T09:42:59;17.00;45.30
21646;DHT22;10984;45.712;4.800;2023-04-24T09:45:43;16.90;1.00
21646;DHT22;10984;45.712;4.800;2023-04-24T09:48:09;16.70;99.90
21646;DHT22;10984;45.712;4.800;2023-04-24T09:50:35;16.90;99.90
21646;DHT22;10984;45.712;4.800;2023-04-24T09:53:05;16.90;90.10
21646;DHT22;10984;45.712;4.800;2023-04-24T09:55:39;17.10;75.00
21646;DHT22;10984;45.712;4.800;2023-04-24T09:58:08;17.10;99.90
21646;DHT22;10984;45.712;4.800;2023-04-24T10:00:34;17.00;99.90
21646;DHT22;10984;45.712;4.800;2023-04-24T10:05:46;17.30;1.00
21646;DHT22;10984;45.712;4.800;2023-04-24T10:08:12;17.60;99.90
21646;DHT22;10984;45.712;4.800;2023-04-24T10:13:24;18.10;1.00
21646;DHT22;10984;45.712;4.800;2023-04-24T10:15:50;18.40;1.00
21646;DHT22;10984;45.712;4.800;2023-04-24T10:18:16;18.70;1.00
21646;DHT22;10984;45.712;4.800;2023-04-24T10:20:43;18.60;1.00
21646;DHT22;10984;45.712;4.800;2023-04-24T10:23:09;18.40;1.00
21646;DHT22;10984;45.712;4.800;2023-04-24T10:25:36;18.30;1.00
21646;DHT22;10984;45.712;4.800;2023-04-24T10:28:04;18.20;1.00
21646;DHT22;10984;45.712;4.800;2023-04-24T10:30:33;18.20;1.00
21646;DHT22;10984;45.712;4.800;2023-04-24T10:33:17;18.10;1.00
21646;DHT22;10984;45.712;4.800;2023-04-24T10:35:46;18.20;1.00
21646;DHT22;10984;45.712;4.800;2023-04-24T10:38:18;17.90;1.00
21646;DHT22;10984;45.712;4.800;2023-04-24T10:40:44;17.70;1.00
21646;DHT22;10984;45.712;4.800;2023-04-24T10:43:09;17.20;1.00
21646;DHT22;10984;45.712;4.800;2023-04-24T10:45:37;17.20;1.00
21646;DHT22;10984;45.712;4.800;2023-04-24T10:50:51;17.10;2.00
21646;DHT22;10984;45.712;4.800;2023-04-24T10:58:51;17.20;1.00
21646;DHT22;10984;45.712;4.800;2023-04-24T11:01:37;17.50;1.00
21646;DHT22;10984;45.712;4.800;2023-04-24T11:04:03;17.20;1.00
21646;DHT22;10984;45.712;4.800;2023-04-24T11:09:15;17.80;1.00
21646;DHT22;10984;45.712;4.800;2023-04-24T11:15:03;17.90;99.90
21646;DHT22;10984;45.712;4.800;2023-04-24T11:17:47;18.10;99.90
21646;DHT22;10984;45.712;4.800;2023-04-24T11:20:17;18.20;99.90
21646;DHT22;10984;45.712;4.800;2023-04-24T11:22:43;18.20;99.90
21646;DHT22;10984;45.712;4.800;2023-04-24T11:25:09;18.50;99.90
21646;DHT22;10984;45.712;4.800;2023-04-24T11:30:41;18.60;1.00
21646;DHT22;10984;45.712;4.800;2023-04-24T11:33:06;18.70;1.00
21646;DHT22;10984;45.712;4.800;2023-04-24T11:35:51;18.50;1.00
21646;DHT22;10984;45.712;4.800;2023-04-24T11:38:17;18.60;1.00
21646;DHT22;10984;45.712;4.800;2023-04-24T11:40:43;18.60;1.00
21646;DHT22;10984;45.712;4.800;2023-04-24T11:43:09;18.30;99.90
21646;DHT22;10984;45.712;4.800;2023-04-24T11:45:34;18.20;1.00
21646;DHT22;10984;45.712;4.800;2023-04-24T11:48:00;18.00;1.00
21646;DHT22;10984;45.712;4.800;2023-04-24T11:50:28;18.20;1.00
21646;DHT22;10984;45.712;4.800;2023-04-24T11:52:54;18.30;99.90
21646;DHT22;10984;45.712;4.800;2023-04-24T11:57:48;18.50;99.90
21646;DHT22;10984;45.712;4.800;2023-04-24T12:00:32;18.80;99.90
21646;DHT22;10984;45.712;4.800;2023-04-24T12:03:18;18.80;1.00
21646;DHT22;10984;45.712;4.800;2023-04-24T12:05:43;19.00;1.00
21646;DHT22;10984;45.712;4.800;2023-04-24T12:08:10;18.90;1.00
21646;DHT22;10984;45.712;4.800;2023-04-24T12:10:36;18.80;1.00
21646;DHT22;10984;45.712;4.800;2023-04-24T12:13:01;18.90;1.00
21646;DHT22;10984;45.712;4.800;2023-04-24T12:15:27;18.40;1.00
21646;DHT22;10984;45.712;4.800;2023-04-24T12:17:54;18.50;1.00
21646;DHT22;10984;45.712;4.800;2023-04-24T12:20:40;18.60;1.00
21646;DHT22;10984;45.712;4.800;2023-04-24T12:23:05;18.40;99.90
21646;DHT22;10984;45.712;4.800;2023-04-24T12:25:32;18.60;1.00
21646;DHT22;10984;45.712;4.800;2023-04-24T12:28:16;18.60;1.00
21646;DHT22;10984;45.712;4.800;2023-04-24T12:30:44;18.70;99.90
21646;DHT22;10984;45.712;4.800;2023-04-24T12:33:10;18.80;1.00
21646;DHT22;10984;45.712;4.800;2023-04-24T12:35:36;18.80;99.90
21646;DHT22;10984;45.712;4.800;2023-04-24T12:41:24;18.90;99.90
21646;DHT22;10984;45.712;4.800;2023-04-24T12:44:10;18.70;1.00
21646;DHT22;10984;45.712;4.800;2023-04-24T12:46:36;18.70;1.00
21646;DHT22;10984;45.712;4.800;2023-04-24T12:49:01;18.80;1.00
21646;DHT22;10984;45.712;4.800;2023-04-24T12:51:27;18.60;1.00
21646;DHT22;10984;45.712;4.800;2023-04-24T12:53:52;18.60;1.00
21646;DHT22;10984;45.712;4.800;2023-04-24T12:56:18;18.70;1.00
21646;DHT22;10984;45.712;4.800;2023-04-24T12:58:43;19.00;1.00
21646;DHT22;10984;45.712;4.800;2023-04-24T13:01:09;19.00;99.90
21646;DHT22;10984;45.712;4.800;2023-04-24T13:03:35;19.00;99.90
21646;DHT22;10984;45.712;4.800;2023-04-24T13:06:01;19.00;1.00
21646;DHT22;10984;45.712;4.800;2023-04-24T13:08:27;19.00;99.90
21646;DHT22;10984;45.712;4.800;2023-04-24T13:10:52;18.90;1.00
21646;DHT22;10984;45.712;4.800;2023-04-24T13:13:19;18.80;1.00
21646;DHT22;10984;45.712;4.800;2023-04-24T13:15:44;18.70;1.00
21646;DHT22;10984;45.712;4.800;2023-04-24T13:18:10;18.40;99.90
21646;DHT22;10984;45.712;4.800;2023-04-24T13:20:36;18.40;99.90
21646;DHT22;10984;45.712;4.800;2023-04-24T13:23:01;18.20;99.90
21646;DHT22;10984;45.712;4.800;2023-04-24T13:25:27;18.20;99.90
21646;DHT22;10984;45.712;4.800;2023-04-24T13:27:53;18.40;99.90
21646;DHT22;10984;45.712;4.800;2023-04-24T13:30:19;18.20;1.00
21646;DHT22;10984;45.712;4.800;2023-04-24T13:32:44;18.50;1.00
21646;DHT22;10984;45.712;4.800;2023-04-24T13:35:10;18.90;1.00
21646;DHT22;10984;45.712;4.800;2023-04-24T13:37:35;19.30;99.90
21646;DHT22;10984;45.712;4.800;2023-04-24T13:40:01;19.40;99.90
21646;DHT22;10984;45.712;4.800;2023-04-24T13:42:27;19.30;1.00
21646;DHT22;10984;45.712;4.800;2023-04-24T13:44:53;19.00;1.00
21646;DHT22;10984;45.712;4.800;2023-04-24T13:47:19;19.10;1.00
21646;DHT22;10984;45.712;4.800;2023-04-24T13:49:45;19.00;1.00
21646;DHT22;10984;45.712;4.800;2023-04-24T13:52:10;18.90;1.00
21646;DHT22;10984;45.712;4.800;2023-04-24T13:54:36;19.00;1.00
21646;DHT22;10984;45.712;4.800;2023-04-24T13:57:02;19.20;1.00
21646;DHT22;10984;45.712;4.800;2023-04-24T13:59:28;19.10;1.00
21646;DHT22;10984;45.712;4.800;2023-04-24T14:01:54;18.80;1.00
21646;DHT22;10984;45.712;4.800;2023-04-24T14:04:20;18.60;1.00
21646;DHT22;10984;45.712;4.800;2023-04-24T14:06:45;18.60;1.00
21646;DHT22;10984;45.712;4.800;2023-04-24T14:09:11;18.30;32.50
21646;DHT22;10984;45.712;4.800;2023-04-24T14:11:37;18.10;1.00
21646;DHT22;10984;45.712;4.800;2023-04-24T14:14:03;18.20;99.90
21646;DHT22;10984;45.712;4.800;2023-04-24T14:16:29;18.10;99.90
21646;DHT22;10984;45.712;4.800;2023-04-24T14:18:55;18.10;99.90
21646;DHT22;10984;45.712;4.800;2023-04-24T14:21:21;18.10;99.90
21646;DHT22;10984;45.712;4.800;2023-04-24T14:23:47;18.20;99.90
21646;DHT22;10984;45.712;4.800;2023-04-24T14:26:12;18.20;1.00
21646;DHT22;10984;45.712;4.800;2023-04-24T14:28:38;18.20;1.00
21646;DHT22;10984;45.712;4.800;2023-04-24T14:31:03;18.20;1.00
21646;DHT22;10984;45.712;4.800;2023-04-24T14:33:30;18.00;99.90
21646;DHT22;10984;45.712;4.800;2023-04-24T14:35:55;17.90;1.00
21646;DHT22;10984;45.712;4.800;2023-04-24T14:38:21;18.00;1.00
21646;DHT22;10984;45.712;4.800;2023-04-24T14:40:47;17.80;1.00
21646;DHT22;10984;45.712;4.800;2023-04-24T14:43:13;17.80;1.00
21646;DHT22;10984;45.712;4.800;2023-04-24T14:45:39;17.80;1.00
21646;DHT22;10984;45.712;4.800;2023-04-24T14:48:06;17.90;1.00
21646;DHT22;10984;45.712;4.800;2023-04-24T14:50:33;17.90;1.00
21646;DHT22;10984;45.712;4.800;2023-04-24T14:52:59;17.70;1.00
21646;DHT22;10984;45.712;4.800;2023-04-24T14:55:25;17.60;1.00
21646;DHT22;10984;45.712;4.800;2023-04-24T14:57:51;17.40;1.00
21646;DHT22;10984;45.712;4.800;2023-04-24T15:00:18;17.40;99.90
21646;DHT22;10984;45.712;4.800;2023-04-24T15:02:43;17.10;99.90
21646;DHT22;10984;45.712;4.800;2023-04-24T15:05:10;17.00;99.90
21646;DHT22;10984;45.712;4.800;2023-04-24T15:07:36;17.10;99.90
21646;DHT22;10984;45.712;4.800;2023-04-24T15:10:03;17.10;99.90
21646;DHT22;10984;45.712;4.800;2023-04-24T15:12:29;17.30;1.00
21646;DHT22;10984;45.712;4.800;2023-04-24T15:14:55;17.40;99.90
21646;DHT22;10984;45.712;4.800;2023-04-24T15:17:20;17.60;1.00
21646;DHT22;10984;45.712;4.800;2023-04-24T15:19:46;17.60;1.00
21646;DHT22;10984;45.712;4.800;2023-04-24T15:22:12;17.70;1.00
21646;DHT22;10984;45.712;4.800;2023-04-24T15:24:37;17.60;1.00
21646;DHT22;10984;45.712;4.800;2023-04-24T15:27:03;17.50;1.00
21646;DHT22;10984;45.712;4.800;2023-04-24T15:29:29;17.60;1.00
21646;DHT22;10984;45.712;4.800;2023-04-24T15:31:55;17.60;1.00
21646;DHT22;10984;45.712;4.800;2023-04-24T15:34:20;17.50;1.00
21646;DHT22;10984;45.712;4.800;2023-04-24T15:36:46;17.50;1.00
21646;DHT22;10984;45.712;4.800;2023-04-24T15:39:12;17.40;1.00
21646;DHT22;10984;45.712;4.800;2023-04-24T15:41:37;17.50;1.00
21646;DHT22;10984;45.712;4.800;2023-04-24T15:44:03;17.50;1.00
21646;DHT22;10984;45.712;4.800;2023-04-24T15:46:29;17.50;1.00
21646;DHT22;10984;45.712;4.800;2023-04-24T15:48:54;17.50;1.00
21646;DHT22;10984;45.712;4.800;2023-04-24T15:51:20;17.60;1.00
21646;DHT22;10984;45.712;4.800;2023-04-24T15:53:46;17.50;1.00
21646;DHT22;10984;45.712;4.800;2023-04-24T15:56:12;17.40;1.00
21646;DHT22;10984;45.712;4.800;2023-04-24T15:58:38;17.30;1.00
21646;DHT22;10984;45.712;4.800;2023-04-24T16:01:04;17.20;1.00
21646;DHT22;10984;45.712;4.800;2023-04-24T16:03:29;17.10;1.00
21646;DHT22;10984;45.712;4.800;2023-04-24T16:05:55;16.90;1.00
21646;DHT22;10984;45.712;4.800;2023-04-24T16:08:21;16.80;1.00
21646;DHT22;10984;45.712;4.800;2023-04-24T16:10:46;16.70;99.90
21646;DHT22;10984;45.712;4.800;2023-04-24T16:13:13;16.60;99.90
21646;DHT22;10984;45.712;4.800;2023-04-24T16:15:39;16.50;99.90
21646;DHT22;10984;45.712;4.800;2023-04-24T16:18:06;16.40;99.90
21646;DHT22;10984;45.712;4.800;2023-04-24T16:20:31;16.50;99.90
21646;DHT22;10984;45.712;4.800;2023-04-24T16:22:57;16.40;99.90
21646;DHT22;10984;45.712;4.800;2023-04-24T16:25:22;16.30;55.00
21646;DHT22;10984;45.712;4.800;2023-04-24T16:27:49;16.40;99.90
21646;DHT22;10984;45.712;4.800;2023-04-24T16:30:15;16.40;99.90
21646;DHT22;10984;45.712;4.800;2023-04-24T16:32:41;16.50;99.90
21646;DHT22;10984;45.712;4.800;2023-04-24T16:35:07;16.60;99.90
21646;DHT22;10984;45.712;4.800;2023-04-24T16:37:32;16.50;1.00
21646;DHT22;10984;45.712;4.800;2023-04-24T16:39:58;16.50;1.00
21646;DHT22;10984;45.712;4.800;2023-04-24T16:42:24;16.50;1.00
21646;DHT22;10984;45.712;4.800;2023-04-24T16:44:49;16.50;1.00
21646;DHT22;10984;45.712;4.800;2023-04-24T16:47:15;16.40;1.00
21646;DHT22;10984;45.712;4.800;2023-04-24T16:49:41;16.40;23.40
21646;DHT22;10984;45.712;4.800;2023-04-24T16:52:09;16.40;1.00
21646;DHT22;10984;45.712;4.800;2023-04-24T16:54:35;16.40;1.00
21646;DHT22;10984;45.712;4.800;2023-04-24T16:57:01;16.40;1.00
21646;DHT22;10984;45.712;4.800;2023-04-24T16:59:28;16.40;1.00
21646;DHT22;10984;45.712;4.800;2023-04-24T17:01:55;16.20;1.00
21646;DHT22;10984;45.712;4.800;2023-04-24T17:04:21;16.10;1.00
21646;DHT22;10984;45.712;4.800;2023-04-24T17:06:46;16.00;9.60
21646;DHT22;10984;45.712;4.800;2023-04-24T17:09:12;16.00;45.70
21646;DHT22;10984;45.712;4.800;2023-04-24T17:11:40;15.90;67.90
21646;DHT22;10984;45.712;4.800;2023-04-24T17:14:05;16.00;99.90
21646;DHT22;10984;45.712;4.800;2023-04-24T17:16:31;15.90;99.90
21646;DHT22;10984;45.712;4.800;2023-04-24T17:18:57;15.80;99.90
21646;DHT22;10984;45.712;4.800;2023-04-24T17:21:22;15.80;99.90
21646;DHT22;10984;45.712;4.800;2023-04-24T17:23:48;15.80;99.90
21646;DHT22;10984;45.712;4.800;2023-04-24T17:26:14;15.80;99.90
21646;DHT22;10984;45.712;4.800;2023-04-24T17:28:40;15.70;99.90
21646;DHT22;10984;45.712;4.800;2023-04-24T17:31:06;15.60;99.90
21646;DHT22;10984;45.712;4.800;2023-04-24T17:33:31;15.50;1.00
21646;DHT22;10984;45.712;4.800;2023-04-24T17:35:58;15.50;1.00
21646;DHT22;10984;45.712;4.800;2023-04-24T17:38:26;15.40;1.00
21646;DHT22;10984;45.712;4.800;2023-04-24T17:40:52;15.30;1.00
21646;DHT22;10984;45.712;4.800;2023-04-24T17:43:19;15.30;1.00
21646;DHT22;10984;45.712;4.800;2023-04-24T17:45:52;15.10;1.00
21646;DHT22;10984;45.712;4.800;2023-04-24T17:48:20;15.00;73.70
21646;DHT22;10984;45.712;4.800;2023-04-24T17:50:47;15.00;1.00
21646;DHT22;10984;45.712;4.800;2023-04-24T17:53:13;15.00;1.00
21646;DHT22;10984;45.712;4.800;2023-04-24T17:55:39;14.90;43.70
21646;DHT22;10984;45.712;4.800;2023-04-24T17:58:05;14.90;1.00
21646;DHT22;10984;45.712;4.800;2023-04-24T18:00:32;14.90;1.00
21646;DHT22;10984;45.712;4.800;2023-04-24T18:02:58;14.90;1.00
21646;DHT22;10984;45.712;4.800;2023-04-24T18:05:43;14.90;1.00
21646;DHT22;10984;45.712;4.800;2023-04-24T18:08:09;14.80;1.00
21646;DHT22;10984;45.712;4.800;2023-04-24T18:10:35;14.70;1.00
21646;DHT22;10984;45.712;4.800;2023-04-24T18:13:01;14.70;1.00
21646;DHT22;10984;45.712;4.800;2023-04-24T18:15:27;14.60;1.00
21646;DHT22;10984;45.712;4.800;2023-04-24T18:17:53;14.60;1.00
21646;DHT22;10984;45.712;4.800;2023-04-24T18:20:19;14.60;1.00
21646;DHT22;10984;45.712;4.800;2023-04-24T18:22:45;14.60;1.00
21646;DHT22;10984;45.712;4.800;2023-04-24T18:25:12;14.50;1.00
21646;DHT22;10984;45.712;4.800;2023-04-24T18:27:38;14.50;35.90
21646;DHT22;10984;45.712;4.800;2023-04-24T18:30:05;14.50;42.70
21646;DHT22;10984;45.712;4.800;2023-04-24T18:32:31;14.50;5.20
21646;DHT22;10984;45.712;4.800;2023-04-24T18:34:57;14.50;36.90
21646;DHT22;10984;45.712;4.800;2023-04-24T18:37:22;14.40;99.90
21646;DHT22;10984;45.712;4.800;2023-04-24T18:39:48;14.30;99.90
21646;DHT22;10984;45.712;4.800;2023-04-24T18:42:16;14.30;99.90
21646;DHT22;10984;45.712;4.800;2023-04-24T18:44:41;14.20;99.90
21646;DHT22;10984;45.712;4.800;2023-04-24T18:47:08;14.10;99.90
21646;DHT22;10984;45.712;4.800;2023-04-24T18:49:34;14.10;99.90
21646;DHT22;10984;45.712;4.800;2023-04-24T18:52:00;14.10;99.90
21646;DHT22;10984;45.712;4.800;2023-04-24T18:54:26;14.00;99.90
21646;DHT22;10984;45.712;4.800;2023-04-24T18:56:51;13.90;1.00
21646;DHT22;10984;45.712;4.800;2023-04-24T18:59:18;13.90;1.00
21646;DHT22;10984;45.712;4.800;2023-04-24T19:01:44;13.90;1.00
21646;DHT22;10984;45.712;4.800;2023-04-24T19:04:10;13.90;1.00
21646;DHT22;10984;45.712;4.800;2023-04-24T19:06:36;13.80;1.00
21646;DHT22;10984;45.712;4.800;2023-04-24T19:09:01;13.80;1.00
21646;DHT22;10984;45.712;4.800;2023-04-24T19:11:27;13.70;1.00
21646;DHT22;10984;45.712;4.800;2023-04-24T19:13:53;13.70;1.00
21646;DHT22;10984;45.712;4.800;2023-04-24T19:16:19;13.60;1.00
21646;DHT22;10984;45.712;4.800;2023-04-24T19:18:44;13.60;1.00
21646;DHT22;10984;45.712;4.800;2023-04-24T19:21:10;13.50;1.00
21646;DHT22;10984;45.712;4.800;2023-04-24T19:23:36;13.40;1.00
21646;DHT22;10984;45.712;4.800;2023-04-24T19:26:04;13.40;1.00
21646;DHT22;10984;45.712;4.800;2023-04-24T19:28:31;13.30;1.00
21646;DHT22;10984;45.712;4.800;2023-04-24T19:30:57;13.30;1.00
21646;DHT22;10984;45.712;4.800;2023-04-24T19:33:41;13.20;1.00
21646;DHT22;10984;45.712;4.800;2023-04-24T19:36:07;13.10;1.00
21646;DHT22;10984;45.712;4.800;2023-04-24T19:38:33;13.00;1.00
21646;DHT22;10984;45.712;4.800;2023-04-24T19:40:59;13.00;1.00
21646;DHT22;10984;45.712;4.800;2023-04-24T19:43:24;13.00;1.00
21646;DHT22;10984;45.712;4.800;2023-04-24T19:45:50;13.00;1.00
21646;DHT22;10984;45.712;4.800;2023-04-24T19:48:16;12.90;1.00
21646;DHT22;10984;45.712;4.800;2023-04-24T19:50:41;12.90;1.00
21646;DHT22;10984;45.712;4.800;2023-04-24T19:53:07;12.90;1.00
21646;DHT22;10984;45.712;4.800;2023-04-24T19:55:33;12.90;1.00
21646;DHT22;10984;45.712;4.800;2023-04-24T19:57:59;12.90;1.00
21646;DHT22;10984;45.712;4.800;2023-04-24T20:00:24;12.90;1.00
21646;DHT22;10984;45.712;4.800;2023-04-24T20:02:50;12.90;1.00
21646;DHT22;10984;45.712;4.800;2023-04-24T20:05:16;12.90;1.00
21646;DHT22;10984;45.712;4.800;2023-04-24T20:07:42;12.90;1.00
21646;DHT22;10984;45.712;4.800;2023-04-24T20:10:08;12.80;1.00
21646;DHT22;10984;45.712;4.800;2023-04-24T20:12:34;12.80;1.00
21646;DHT22;10984;45.712;4.800;2023-04-24T20:15:02;12.80;1.00
21646;DHT22;10984;45.712;4.800;2023-04-24T20:17:28;12.70;1.00
21646;DHT22;10984;45.712;4.800;2023-04-24T20:19:54;12.70;1.00
21646;DHT22;10984;45.712;4.800;2023-04-24T20:22:20;12.70;1.00
21646;DHT22;10984;45.712;4.800;2023-04-24T20:24:45;12.70;1.00
21646;DHT22;10984;45.712;4.800;2023-04-24T20:27:11;12.60;1.00
21646;DHT22;10984;45.712;4.800;2023-04-24T20:29:37;12.60;1.00
21646;DHT22;10984;45.712;4.800;2023-04-24T20:32:03;12.60;1.00
21646;DHT22;10984;45.712;4.800;2023-04-24T20:34:29;12.50;1.00
21646;DHT22;10984;45.712;4.800;2023-04-24T20:36:54;12.50;9.10
21646;DHT22;10984;45.712;4.800;2023-04-24T20:39:39;12.40;1.00
21646;DHT22;10984;45.712;4.800;2023-04-24T20:42:05;12.30;1.00
21646;DHT22;10984;45.712;4.800;2023-04-24T20:44:30;12.20;5.90
21646;DHT22;10984;45.712;4.800;2023-04-24T20:46:56;12.10;9.00
21646;DHT22;10984;45.712;4.800;2023-04-24T20:49:22;12.00;3.80
21646;DHT22;10984;45.712;4.800;2023-04-24T20:51:47;12.00;13.20